sensor_id;sensor_type;location;lat;lon;timestamp;P1;durP1;ratioP1;P2;durP2;ratioP2
6566;SDS011;3317;43.994;22.878;2022-11-20T00:01:23;8.50;;;5.80;;
6566;SDS011;3317;43.994;22.878;2022-11-20T00:03:51;11.00;;;7.80;;
6566;SDS011;3317;43.994;22.878;2022-11-20T00:06:20;8.40;;;6.07;;
6566;SDS011;3317;43.994;22.878;2022-11-20T00:08:48;12.13;;;8.30;;
6566;SDS011;3317;43.994;22.878;2022-11-20T00:11:16;13.10;;;9.60;;
6566;SDS011;3317;43.994;22.878;2022-11-20T00:13:44;15.27;;;10.33;;
6566;SDS011;3317;43.994;22.878;2022-11-20T00:16:13;12.00;;;9.40;;
6566;SDS011;3317;43.994;22.878;2022-11-20T00:18:40;9.83;;;7.23;;
6566;SDS011;3317;43.994;22.878;2022-11-20T00:21:10;15.87;;;11.07;;
6566;SDS011;3317;43.994;22.878;2022-11-20T00:23:39;13.73;;;9.73;;
6566;SDS011;3317;43.994;22.878;2022-11-20T00:26:07;14.70;;;9.10;;
6566;SDS011;3317;43.994;22.878;2022-11-20T00:28:36;10.00;;;7.83;;
6566;SDS011;3317;43.994;22.878;2022-11-20T00:31:03;12.17;;;8.60;;
6566;SDS011;3317;43.994;22.878;2022-11-20T00:33:31;10.67;;;7.00;;
6566;SDS011;3317;43.994;22.878;2022-11-20T00:35:59;13.00;;;7.97;;
6566;SDS011;3317;43.994;22.878;2022-11-20T00:38:27;10.97;;;7.73;;
6566;SDS011;3317;43.994;22.878;2022-11-20T00:40:56;9.40;;;6.87;;
6566;SDS011;3317;43.994;22.878;2022-11-20T00:43:23;9.90;;;7.53;;
6566;SDS011;3317;43.994;22.878;2022-11-20T00:45:50;13.60;;;8.33;;
6566;SDS011;3317;43.994;22.878;2022-11-20T00:48:21;14.10;;;9.10;;
6566;SDS011;3317;43.994;22.878;2022-11-20T00:50:48;15.90;;;10.63;;
6566;SDS011;3317;43.994;22.878;2022-11-20T00:53:15;12.97;;;9.90;;
6566;SDS011;3317;43.994;22.878;2022-11-20T00:55:42;9.10;;;7.33;;
6566;SDS011;3317;43.994;22.878;2022-11-20T00:58:10;10.93;;;8.03;;
6566;SDS011;3317;43.994;22.878;2022-11-20T01:00:37;7.67;;;5.93;;
6566;SDS011;3317;43.994;22.878;2022-11-20T01:03:04;13.60;;;9.30;;
6566;SDS011;3317;43.994;22.878;2022-11-20T01:05:33;14.33;;;10.03;;
6566;SDS011;3317;43.994;22.878;2022-11-20T01:08:01;11.33;;;8.80;;
6566;SDS011;3317;43.994;22.878;2022-11-20T01:10:28;12.87;;;8.90;;
6566;SDS011;3317;43.994;22.878;2022-11-20T01:12:55;15.70;;;10.60;;
6566;SDS011;3317;43.994;22.878;2022-11-20T01:15:37;15.20;;;9.90;;
6566;SDS011;3317;43.994;22.878;2022-11-20T01:18:04;15.60;;;11.17;;
6566;SDS011;3317;43.994;22.878;2022-11-20T01:20:33;16.17;;;11.60;;
6566;SDS011;3317;43.994;22.878;2022-11-20T01:23:01;18.67;;;12.70;;
6566;SDS011;3317;43.994;22.878;2022-11-20T01:25:28;17.70;;;12.60;;
6566;SDS011;3317;43.994;22.878;2022-11-20T01:27:55;23.67;;;13.90;;
6566;SDS011;3317;43.994;22.878;2022-11-20T01:30:22;21.60;;;13.80;;
6566;SDS011;3317;43.994;22.878;2022-11-20T01:32:50;20.40;;;14.33;;
6566;SDS011;3317;43.994;22.878;2022-11-20T01:35:17;21.37;;;14.53;;
6566;SDS011;3317;43.994;22.878;2022-11-20T01:37:44;23.80;;;15.33;;
6566;SDS011;3317;43.994;22.878;2022-11-20T01:40:11;23.23;;;14.40;;
6566;SDS011;3317;43.994;22.878;2022-11-20T01:42:38;21.97;;;15.20;;
6566;SDS011;3317;43.994;22.878;2022-11-20T01:48:26;25.70;;;16.13;;
6566;SDS011;3317;43.994;22.878;2022-11-20T01:50:58;26.13;;;17.73;;
6566;SDS011;3317;43.994;22.878;2022-11-20T01:53:28;27.60;;;19.00;;
6566;SDS011;3317;43.994;22.878;2022-11-20T01:55:59;28.93;;;18.23;;
6566;SDS011;3317;43.994;22.878;2022-11-20T01:58:28;30.07;;;20.40;;
6566;SDS011;3317;43.994;22.878;2022-11-20T02:00:59;34.40;;;22.00;;
6566;SDS011;3317;43.994;22.878;2022-11-20T02:03:27;35.27;;;21.63;;
6566;SDS011;3317;43.994;22.878;2022-11-20T02:05:55;33.90;;;22.03;;
6566;SDS011;3317;43.994;22.878;2022-11-20T02:08:27;39.10;;;24.87;;
6566;SDS011;3317;43.994;22.878;2022-11-20T02:10:54;40.73;;;25.77;;
6566;SDS011;3317;43.994;22.878;2022-11-20T02:13:21;37.90;;;24.17;;
6566;SDS011;3317;43.994;22.878;2022-11-20T02:16:08;42.23;;;26.17;;
6566;SDS011;3317;43.994;22.878;2022-11-20T02:18:38;33.40;;;22.43;;
6566;SDS011;3317;43.994;22.878;2022-11-20T02:21:06;38.07;;;25.97;;
6566;SDS011;3317;43.994;22.878;2022-11-20T02:23:39;46.77;;;26.10;;
6566;SDS011;3317;43.994;22.878;2022-11-20T02:26:20;42.10;;;26.63;;
6566;SDS011;3317;43.994;22.878;2022-11-20T02:28:49;39.30;;;25.43;;
6566;SDS011;3317;43.994;22.878;2022-11-20T02:31:16;35.80;;;24.80;;
6566;SDS011;3317;43.994;22.878;2022-11-20T02:33:43;37.37;;;23.33;;
6566;SDS011;3317;43.994;22.878;2022-11-20T02:36:11;33.87;;;21.87;;
6566;SDS011;3317;43.994;22.878;2022-11-20T02:38:41;37.17;;;23.87;;
6566;SDS011;3317;43.994;22.878;2022-11-20T02:41:11;41.70;;;25.10;;
6566;SDS011;3317;43.994;22.878;2022-11-20T02:43:38;40.63;;;26.40;;
6566;SDS011;3317;43.994;22.878;2022-11-20T02:46:06;39.63;;;26.63;;
6566;SDS011;3317;43.994;22.878;2022-11-20T02:48:33;32.43;;;21.57;;
6566;SDS011;3317;43.994;22.878;2022-11-20T02:51:00;33.87;;;23.43;;
6566;SDS011;3317;43.994;22.878;2022-11-20T02:53:27;35.63;;;24.03;;
6566;SDS011;3317;43.994;22.878;2022-11-20T02:55:54;36.63;;;24.60;;
6566;SDS011;3317;43.994;22.878;2022-11-20T02:58:23;39.83;;;24.00;;
6566;SDS011;3317;43.994;22.878;2022-11-20T03:00:50;39.27;;;25.87;;
6566;SDS011;3317;43.994;22.878;2022-11-20T03:03:18;40.60;;;24.87;;
6566;SDS011;3317;43.994;22.878;2022-11-20T03:05:45;41.00;;;25.10;;
6566;SDS011;3317;43.994;22.878;2022-11-20T03:08:11;42.97;;;25.03;;
6566;SDS011;3317;43.994;22.878;2022-11-20T03:10:38;45.70;;;25.77;;
6566;SDS011;3317;43.994;22.878;2022-11-20T03:13:05;42.53;;;27.13;;
6566;SDS011;3317;43.994;22.878;2022-11-20T03:15:34;42.87;;;27.17;;
6566;SDS011;3317;43.994;22.878;2022-11-20T03:18:02;46.23;;;28.03;;
6566;SDS011;3317;43.994;22.878;2022-11-20T03:20:29;41.13;;;26.30;;
6566;SDS011;3317;43.994;22.878;2022-11-20T03:22:58;47.30;;;27.00;;
6566;SDS011;3317;43.994;22.878;2022-11-20T03:25:25;42.93;;;27.10;;
6566;SDS011;3317;43.994;22.878;2022-11-20T03:27:52;47.27;;;27.80;;
6566;SDS011;3317;43.994;22.878;2022-11-20T03:30:19;41.43;;;25.73;;
6566;SDS011;3317;43.994;22.878;2022-11-20T03:32:48;38.27;;;25.90;;
6566;SDS011;3317;43.994;22.878;2022-11-20T03:35:14;41.07;;;27.50;;
6566;SDS011;3317;43.994;22.878;2022-11-20T03:37:41;36.10;;;24.80;;
6566;SDS011;3317;43.994;22.878;2022-11-20T03:40:09;49.97;;;32.20;;
6566;SDS011;3317;43.994;22.878;2022-11-20T03:42:36;47.60;;;27.90;;
6566;SDS011;3317;43.994;22.878;2022-11-20T03:45:12;41.83;;;31.20;;
6566;SDS011;3317;43.994;22.878;2022-11-20T03:47:39;42.87;;;27.60;;
6566;SDS011;3317;43.994;22.878;2022-11-20T03:50:08;44.57;;;27.37;;
6566;SDS011;3317;43.994;22.878;2022-11-20T03:52:37;40.80;;;25.77;;
6566;SDS011;3317;43.994;22.878;2022-11-20T03:55:04;38.57;;;25.67;;
6566;SDS011;3317;43.994;22.878;2022-11-20T03:57:32;41.00;;;26.73;;
6566;SDS011;3317;43.994;22.878;2022-11-20T03:59:59;41.03;;;25.90;;
6566;SDS011;3317;43.994;22.878;2022-11-20T04:02:26;41.93;;;26.83;;
6566;SDS011;3317;43.994;22.878;2022-11-20T04:04:52;40.80;;;26.03;;
6566;SDS011;3317;43.994;22.878;2022-11-20T04:07:21;37.10;;;23.80;;
6566;SDS011;3317;43.994;22.878;2022-11-20T04:09:48;26.30;;;19.73;;
6566;SDS011;3317;43.994;22.878;2022-11-20T04:12:14;25.40;;;17.70;;
6566;SDS011;3317;43.994;22.878;2022-11-20T04:14:41;28.27;;;19.00;;
6566;SDS011;3317;43.994;22.878;2022-11-20T04:17:08;31.70;;;21.30;;
6566;SDS011;3317;43.994;22.878;2022-11-20T04:19:35;26.50;;;17.70;;
6566;SDS011;3317;43.994;22.878;2022-11-20T04:22:02;27.07;;;18.00;;
6566;SDS011;3317;43.994;22.878;2022-11-20T04:24:30;30.93;;;20.73;;
6566;SDS011;3317;43.994;22.878;2022-11-20T04:26:57;28.93;;;19.93;;
6566;SDS011;3317;43.994;22.878;2022-11-20T04:29:24;31.47;;;19.33;;
6566;SDS011;3317;43.994;22.878;2022-11-20T04:31:51;26.87;;;19.17;;
6566;SDS011;3317;43.994;22.878;2022-11-20T04:34:18;28.97;;;19.43;;
6566;SDS011;3317;43.994;22.878;2022-11-20T04:36:45;28.53;;;19.17;;
6566;SDS011;3317;43.994;22.878;2022-11-20T04:39:12;26.23;;;17.73;;
6566;SDS011;3317;43.994;22.878;2022-11-20T04:41:41;27.13;;;18.43;;
6566;SDS011;3317;43.994;22.878;2022-11-20T04:44:09;29.27;;;18.90;;
6566;SDS011;3317;43.994;22.878;2022-11-20T04:46:36;29.60;;;19.70;;
6566;SDS011;3317;43.994;22.878;2022-11-20T04:49:04;43.57;;;29.30;;
6566;SDS011;3317;43.994;22.878;2022-11-20T04:51:32;29.10;;;19.37;;
6566;SDS011;3317;43.994;22.878;2022-11-20T04:54:00;26.93;;;17.70;;
6566;SDS011;3317;43.994;22.878;2022-11-20T04:56:27;34.33;;;21.10;;
6566;SDS011;3317;43.994;22.878;2022-11-20T04:58:55;34.30;;;21.13;;
6566;SDS011;3317;43.994;22.878;2022-11-20T05:01:25;34.90;;;21.57;;
6566;SDS011;3317;43.994;22.878;2022-11-20T05:03:52;35.53;;;20.60;;
6566;SDS011;3317;43.994;22.878;2022-11-20T05:06:21;29.73;;;20.67;;
6566;SDS011;3317;43.994;22.878;2022-11-20T05:08:48;31.83;;;19.63;;
6566;SDS011;3317;43.994;22.878;2022-11-20T05:11:16;31.77;;;20.87;;
6566;SDS011;3317;43.994;22.878;2022-11-20T05:13:44;33.87;;;20.57;;
6566;SDS011;3317;43.994;22.878;2022-11-20T05:16:14;33.40;;;20.57;;
6566;SDS011;3317;43.994;22.878;2022-11-20T05:18:42;32.40;;;20.93;;
6566;SDS011;3317;43.994;22.878;2022-11-20T05:21:09;32.87;;;20.67;;
6566;SDS011;3317;43.994;22.878;2022-11-20T05:23:37;35.87;;;20.83;;
6566;SDS011;3317;43.994;22.878;2022-11-20T05:26:05;32.80;;;20.50;;
6566;SDS011;3317;43.994;22.878;2022-11-20T05:28:33;31.20;;;19.33;;
6566;SDS011;3317;43.994;22.878;2022-11-20T05:31:04;31.80;;;19.83;;
6566;SDS011;3317;43.994;22.878;2022-11-20T05:33:33;30.20;;;20.43;;
6566;SDS011;3317;43.994;22.878;2022-11-20T05:36:01;29.23;;;19.73;;
6566;SDS011;3317;43.994;22.878;2022-11-20T05:38:28;29.17;;;20.07;;
6566;SDS011;3317;43.994;22.878;2022-11-20T05:40:55;30.07;;;20.37;;
6566;SDS011;3317;43.994;22.878;2022-11-20T05:43:31;27.97;;;18.93;;
6566;SDS011;3317;43.994;22.878;2022-11-20T05:45:59;28.63;;;19.00;;
6566;SDS011;3317;43.994;22.878;2022-11-20T05:48:26;28.37;;;17.50;;
6566;SDS011;3317;43.994;22.878;2022-11-20T05:50:55;24.83;;;17.20;;
6566;SDS011;3317;43.994;22.878;2022-11-20T05:53:23;24.10;;;17.20;;
6566;SDS011;3317;43.994;22.878;2022-11-20T05:55:55;27.33;;;17.60;;
6566;SDS011;3317;43.994;22.878;2022-11-20T05:58:23;27.40;;;17.90;;
6566;SDS011;3317;43.994;22.878;2022-11-20T06:00:50;26.07;;;17.47;;
6566;SDS011;3317;43.994;22.878;2022-11-20T06:03:17;24.33;;;15.60;;
6566;SDS011;3317;43.994;22.878;2022-11-20T06:05:44;24.43;;;16.90;;
6566;SDS011;3317;43.994;22.878;2022-11-20T06:08:12;24.70;;;16.97;;
6566;SDS011;3317;43.994;22.878;2022-11-20T06:10:39;26.80;;;18.07;;
6566;SDS011;3317;43.994;22.878;2022-11-20T06:13:06;23.40;;;16.60;;
6566;SDS011;3317;43.994;22.878;2022-11-20T06:15:33;27.07;;;16.97;;
6566;SDS011;3317;43.994;22.878;2022-11-20T06:18:00;26.57;;;17.90;;
6566;SDS011;3317;43.994;22.878;2022-11-20T06:20:27;25.53;;;17.33;;
6566;SDS011;3317;43.994;22.878;2022-11-20T06:22:54;25.50;;;17.90;;
6566;SDS011;3317;43.994;22.878;2022-11-20T06:25:22;28.97;;;18.47;;
6566;SDS011;3317;43.994;22.878;2022-11-20T06:27:49;29.50;;;18.70;;
6566;SDS011;3317;43.994;22.878;2022-11-20T06:30:16;27.73;;;17.87;;
6566;SDS011;3317;43.994;22.878;2022-11-20T06:32:43;25.40;;;18.07;;
6566;SDS011;3317;43.994;22.878;2022-11-20T06:35:10;28.77;;;17.67;;
6566;SDS011;3317;43.994;22.878;2022-11-20T06:37:36;27.53;;;18.00;;
6566;SDS011;3317;43.994;22.878;2022-11-20T06:40:04;27.37;;;17.37;;
6566;SDS011;3317;43.994;22.878;2022-11-20T06:42:33;29.73;;;19.40;;
6566;SDS011;3317;43.994;22.878;2022-11-20T06:45:00;27.97;;;18.60;;
6566;SDS011;3317;43.994;22.878;2022-11-20T06:47:27;25.70;;;17.80;;
6566;SDS011;3317;43.994;22.878;2022-11-20T06:49:54;26.03;;;17.40;;
6566;SDS011;3317;43.994;22.878;2022-11-20T06:52:21;27.20;;;18.07;;
6566;SDS011;3317;43.994;22.878;2022-11-20T06:54:47;23.80;;;18.27;;
6566;SDS011;3317;43.994;22.878;2022-11-20T06:57:14;26.07;;;17.23;;
6566;SDS011;3317;43.994;22.878;2022-11-20T06:59:43;30.90;;;19.30;;
6566;SDS011;3317;43.994;22.878;2022-11-20T07:02:10;31.03;;;19.50;;
6566;SDS011;3317;43.994;22.878;2022-11-20T07:04:37;30.57;;;19.63;;
6566;SDS011;3317;43.994;22.878;2022-11-20T07:07:05;27.90;;;18.63;;
6566;SDS011;3317;43.994;22.878;2022-11-20T07:09:32;29.70;;;18.40;;
6566;SDS011;3317;43.994;22.878;2022-11-20T07:11:59;30.57;;;19.10;;
6566;SDS011;3317;43.994;22.878;2022-11-20T07:14:26;30.50;;;20.10;;
6566;SDS011;3317;43.994;22.878;2022-11-20T07:16:55;30.90;;;19.43;;
6566;SDS011;3317;43.994;22.878;2022-11-20T07:19:22;29.30;;;18.53;;
6566;SDS011;3317;43.994;22.878;2022-11-20T07:21:49;28.13;;;18.27;;
6566;SDS011;3317;43.994;22.878;2022-11-20T07:24:16;26.63;;;18.73;;
6566;SDS011;3317;43.994;22.878;2022-11-20T07:26:42;29.13;;;18.87;;
6566;SDS011;3317;43.994;22.878;2022-11-20T07:29:12;25.90;;;17.23;;
6566;SDS011;3317;43.994;22.878;2022-11-20T07:31:39;24.37;;;16.27;;
6566;SDS011;3317;43.994;22.878;2022-11-20T07:34:07;22.70;;;16.70;;
6566;SDS011;3317;43.994;22.878;2022-11-20T07:36:34;21.47;;;16.30;;
6566;SDS011;3317;43.994;22.878;2022-11-20T07:39:01;21.57;;;16.70;;
6566;SDS011;3317;43.994;22.878;2022-11-20T07:41:28;24.53;;;16.93;;
6566;SDS011;3317;43.994;22.878;2022-11-20T07:43:55;24.53;;;18.10;;
6566;SDS011;3317;43.994;22.878;2022-11-20T07:46:22;29.67;;;19.30;;
6566;SDS011;3317;43.994;22.878;2022-11-20T07:48:49;22.90;;;16.23;;
6566;SDS011;3317;43.994;22.878;2022-11-20T07:51:17;30.27;;;21.53;;
6566;SDS011;3317;43.994;22.878;2022-11-20T07:53:44;21.03;;;15.80;;
6566;SDS011;3317;43.994;22.878;2022-11-20T07:56:11;23.60;;;16.43;;
6566;SDS011;3317;43.994;22.878;2022-11-20T07:58:39;26.87;;;18.80;;
6566;SDS011;3317;43.994;22.878;2022-11-20T08:01:06;27.53;;;20.83;;
6566;SDS011;3317;43.994;22.878;2022-11-20T08:03:34;23.90;;;17.97;;
6566;SDS011;3317;43.994;22.878;2022-11-20T08:06:02;21.80;;;16.27;;
6566;SDS011;3317;43.994;22.878;2022-11-20T08:08:31;24.83;;;17.57;;
6566;SDS011;3317;43.994;22.878;2022-11-20T08:10:58;23.67;;;17.30;;
6566;SDS011;3317;43.994;22.878;2022-11-20T08:13:39;26.00;;;18.20;;
6566;SDS011;3317;43.994;22.878;2022-11-20T08:16:23;31.30;;;21.37;;
6566;SDS011;3317;43.994;22.878;2022-11-20T08:18:50;33.87;;;23.40;;
6566;SDS011;3317;43.994;22.878;2022-11-20T08:21:17;39.23;;;25.00;;
6566;SDS011;3317;43.994;22.878;2022-11-20T08:23:45;33.40;;;24.33;;
6566;SDS011;3317;43.994;22.878;2022-11-20T08:26:12;33.83;;;22.83;;
6566;SDS011;3317;43.994;22.878;2022-11-20T08:28:39;36.30;;;21.40;;
6566;SDS011;3317;43.994;22.878;2022-11-20T08:31:06;33.27;;;23.20;;
6566;SDS011;3317;43.994;22.878;2022-11-20T08:33:35;39.67;;;25.57;;
6566;SDS011;3317;43.994;22.878;2022-11-20T08:36:02;37.03;;;24.70;;
6566;SDS011;3317;43.994;22.878;2022-11-20T08:38:31;35.17;;;22.47;;
6566;SDS011;3317;43.994;22.878;2022-11-20T08:41:00;28.83;;;19.43;;
6566;SDS011;3317;43.994;22.878;2022-11-20T08:43:46;28.67;;;20.00;;
6566;SDS011;3317;43.994;22.878;2022-11-20T08:46:13;32.47;;;20.47;;
6566;SDS011;3317;43.994;22.878;2022-11-20T08:48:40;32.60;;;21.00;;
6566;SDS011;3317;43.994;22.878;2022-11-20T08:51:07;26.53;;;20.20;;
6566;SDS011;3317;43.994;22.878;2022-11-20T08:53:34;30.43;;;20.93;;
6566;SDS011;3317;43.994;22.878;2022-11-20T08:56:03;29.70;;;20.63;;
6566;SDS011;3317;43.994;22.878;2022-11-20T08:58:30;36.03;;;22.57;;
6566;SDS011;3317;43.994;22.878;2022-11-20T09:00:57;31.53;;;20.80;;
6566;SDS011;3317;43.994;22.878;2022-11-20T09:03:24;36.10;;;22.30;;
6566;SDS011;3317;43.994;22.878;2022-11-20T09:05:56;30.63;;;21.00;;
6566;SDS011;3317;43.994;22.878;2022-11-20T09:08:24;29.53;;;20.80;;
6566;SDS011;3317;43.994;22.878;2022-11-20T09:10:51;35.40;;;22.70;;
6566;SDS011;3317;43.994;22.878;2022-11-20T09:13:20;32.20;;;21.23;;
6566;SDS011;3317;43.994;22.878;2022-11-20T09:15:51;36.63;;;22.27;;
6566;SDS011;3317;43.994;22.878;2022-11-20T09:18:19;26.70;;;19.33;;
6566;SDS011;3317;43.994;22.878;2022-11-20T09:20:46;27.23;;;18.97;;
6566;SDS011;3317;43.994;22.878;2022-11-20T09:23:13;29.90;;;19.97;;
6566;SDS011;3317;43.994;22.878;2022-11-20T09:25:40;21.57;;;16.77;;
6566;SDS011;3317;43.994;22.878;2022-11-20T09:28:07;23.00;;;17.00;;
6566;SDS011;3317;43.994;22.878;2022-11-20T09:30:35;25.97;;;16.87;;
6566;SDS011;3317;43.994;22.878;2022-11-20T09:33:03;22.27;;;16.13;;
6566;SDS011;3317;43.994;22.878;2022-11-20T09:35:31;23.40;;;17.77;;
6566;SDS011;3317;43.994;22.878;2022-11-20T09:37:57;25.40;;;17.83;;
6566;SDS011;3317;43.994;22.878;2022-11-20T09:40:25;25.20;;;18.83;;
6566;SDS011;3317;43.994;22.878;2022-11-20T09:42:55;25.47;;;18.10;;
6566;SDS011;3317;43.994;22.878;2022-11-20T09:45:28;28.67;;;18.27;;
6566;SDS011;3317;43.994;22.878;2022-11-20T09:51:00;23.40;;;15.50;;
6566;SDS011;3317;43.994;22.878;2022-11-20T09:53:35;23.00;;;14.73;;
6566;SDS011;3317;43.994;22.878;2022-11-20T09:56:12;30.27;;;18.77;;
6566;SDS011;3317;43.994;22.878;2022-11-20T09:58:40;30.93;;;20.40;;
6566;SDS011;3317;43.994;22.878;2022-11-20T10:01:13;33.37;;;21.60;;
6566;SDS011;3317;43.994;22.878;2022-11-20T10:03:45;29.90;;;21.10;;
6566;SDS011;3317;43.994;22.878;2022-11-20T10:06:20;23.70;;;17.40;;
6566;SDS011;3317;43.994;22.878;2022-11-20T10:08:52;28.10;;;18.47;;
6566;SDS011;3317;43.994;22.878;2022-11-20T10:11:29;27.97;;;17.80;;
6566;SDS011;3317;43.994;22.878;2022-11-20T10:14:07;26.63;;;18.70;;
6566;SDS011;3317;43.994;22.878;2022-11-20T10:16:47;21.80;;;15.70;;
6566;SDS011;3317;43.994;22.878;2022-11-20T10:19:26;18.80;;;13.47;;
6566;SDS011;3317;43.994;22.878;2022-11-20T10:22:10;20.10;;;14.03;;
6566;SDS011;3317;43.994;22.878;2022-11-20T10:24:51;18.87;;;14.80;;
6566;SDS011;3317;43.994;22.878;2022-11-20T10:27:32;23.53;;;16.03;;
6566;SDS011;3317;43.994;22.878;2022-11-20T10:30:10;21.30;;;15.17;;
6566;SDS011;3317;43.994;22.878;2022-11-20T10:32:41;23.80;;;16.33;;
6566;SDS011;3317;43.994;22.878;2022-11-20T10:35:16;20.97;;;14.77;;
6566;SDS011;3317;43.994;22.878;2022-11-20T10:37:49;20.60;;;15.40;;
6566;SDS011;3317;43.994;22.878;2022-11-20T10:40:22;22.57;;;15.53;;
6566;SDS011;3317;43.994;22.878;2022-11-20T10:42:59;22.87;;;15.73;;
6566;SDS011;3317;43.994;22.878;2022-11-20T10:45:42;25.33;;;16.93;;
6566;SDS011;3317;43.994;22.878;2022-11-20T10:48:16;21.13;;;14.50;;
6566;SDS011;3317;43.994;22.878;2022-11-20T10:53:46;18.30;;;13.67;;
6566;SDS011;3317;43.994;22.878;2022-11-20T10:56:26;18.30;;;13.80;;
6566;SDS011;3317;43.994;22.878;2022-11-20T10:59:03;22.00;;;16.30;;
6566;SDS011;3317;43.994;22.878;2022-11-20T11:01:46;17.73;;;12.80;;
6566;SDS011;3317;43.994;22.878;2022-11-20T11:04:18;19.00;;;14.03;;
6566;SDS011;3317;43.994;22.878;2022-11-20T11:06:57;20.40;;;15.03;;
6566;SDS011;3317;43.994;22.878;2022-11-20T11:09:33;21.57;;;15.33;;
6566;SDS011;3317;43.994;22.878;2022-11-20T11:12:06;19.90;;;16.30;;
6566;SDS011;3317;43.994;22.878;2022-11-20T11:14:41;25.23;;;16.77;;
6566;SDS011;3317;43.994;22.878;2022-11-20T11:17:18;24.63;;;18.80;;
6566;SDS011;3317;43.994;22.878;2022-11-20T11:19:57;25.10;;;18.90;;
6566;SDS011;3317;43.994;22.878;2022-11-20T11:22:30;23.83;;;16.83;;
6566;SDS011;3317;43.994;22.878;2022-11-20T11:24:59;26.17;;;20.37;;
6566;SDS011;3317;43.994;22.878;2022-11-20T11:27:26;24.80;;;18.17;;
6566;SDS011;3317;43.994;22.878;2022-11-20T11:30:01;23.40;;;16.70;;
6566;SDS011;3317;43.994;22.878;2022-11-20T11:32:38;22.40;;;16.90;;
6566;SDS011;3317;43.994;22.878;2022-11-20T11:35:11;20.43;;;15.70;;
6566;SDS011;3317;43.994;22.878;2022-11-20T11:37:46;20.20;;;16.57;;
6566;SDS011;3317;43.994;22.878;2022-11-20T11:40:14;22.10;;;16.50;;
6566;SDS011;3317;43.994;22.878;2022-11-20T11:42:42;19.70;;;14.27;;
6566;SDS011;3317;43.994;22.878;2022-11-20T11:45:11;18.47;;;14.80;;
6566;SDS011;3317;43.994;22.878;2022-11-20T11:47:43;22.20;;;15.10;;
6566;SDS011;3317;43.994;22.878;2022-11-20T11:50:15;28.07;;;19.67;;
6566;SDS011;3317;43.994;22.878;2022-11-20T11:52:46;18.60;;;14.40;;
6566;SDS011;3317;43.994;22.878;2022-11-20T11:55:21;20.50;;;14.50;;
6566;SDS011;3317;43.994;22.878;2022-11-20T11:57:57;24.67;;;16.50;;
6566;SDS011;3317;43.994;22.878;2022-11-20T12:00:32;16.27;;;12.43;;
6566;SDS011;3317;43.994;22.878;2022-11-20T12:03:05;19.53;;;13.83;;
6566;SDS011;3317;43.994;22.878;2022-11-20T12:05:42;16.23;;;11.73;;
6566;SDS011;3317;43.994;22.878;2022-11-20T12:08:13;17.30;;;11.30;;
6566;SDS011;3317;43.994;22.878;2022-11-20T12:10:45;12.97;;;10.40;;
6566;SDS011;3317;43.994;22.878;2022-11-20T12:13:21;15.93;;;11.50;;
6566;SDS011;3317;43.994;22.878;2022-11-20T12:16:01;16.10;;;11.20;;
6566;SDS011;3317;43.994;22.878;2022-11-20T12:18:29;18.40;;;12.10;;
6566;SDS011;3317;43.994;22.878;2022-11-20T12:21:04;15.60;;;11.40;;
6566;SDS011;3317;43.994;22.878;2022-11-20T12:23:44;14.60;;;10.93;;
6566;SDS011;3317;43.994;22.878;2022-11-20T12:26:27;13.60;;;11.00;;
6566;SDS011;3317;43.994;22.878;2022-11-20T12:29:06;13.90;;;11.00;;
6566;SDS011;3317;43.994;22.878;2022-11-20T12:34:39;12.60;;;10.87;;
6566;SDS011;3317;43.994;22.878;2022-11-20T12:37:18;16.37;;;11.73;;
6566;SDS011;3317;43.994;22.878;2022-11-20T12:39:57;13.50;;;10.67;;
6566;SDS011;3317;43.994;22.878;2022-11-20T12:42:32;14.30;;;10.47;;
6566;SDS011;3317;43.994;22.878;2022-11-20T12:45:48;12.73;;;9.50;;
6566;SDS011;3317;43.994;22.878;2022-11-20T12:48:31;12.47;;;10.47;;
6566;SDS011;3317;43.994;22.878;2022-11-20T12:57:09;15.43;;;11.27;;
6566;SDS011;3317;43.994;22.878;2022-11-20T12:59:54;13.87;;;11.87;;
6566;SDS011;3317;43.994;22.878;2022-11-20T13:02:31;17.23;;;12.83;;
6566;SDS011;3317;43.994;22.878;2022-11-20T13:05:17;18.17;;;11.80;;
6566;SDS011;3317;43.994;22.878;2022-11-20T13:07:47;18.97;;;13.80;;
6566;SDS011;3317;43.994;22.878;2022-11-20T13:10:18;16.23;;;12.60;;
6566;SDS011;3317;43.994;22.878;2022-11-20T13:12:54;16.00;;;12.47;;
6566;SDS011;3317;43.994;22.878;2022-11-20T13:15:42;21.70;;;16.30;;
6566;SDS011;3317;43.994;22.878;2022-11-20T13:18:14;22.47;;;13.87;;
6566;SDS011;3317;43.994;22.878;2022-11-20T13:20:42;20.20;;;15.03;;
6566;SDS011;3317;43.994;22.878;2022-11-20T13:23:11;17.90;;;13.03;;
6566;SDS011;3317;43.994;22.878;2022-11-20T13:25:38;18.63;;;14.60;;
6566;SDS011;3317;43.994;22.878;2022-11-20T13:30:56;21.47;;;15.77;;
6566;SDS011;3317;43.994;22.878;2022-11-20T13:33:26;20.60;;;15.20;;
6566;SDS011;3317;43.994;22.878;2022-11-20T13:35:55;18.90;;;13.57;;
6566;SDS011;3317;43.994;22.878;2022-11-20T13:38:24;17.60;;;14.03;;
6566;SDS011;3317;43.994;22.878;2022-11-20T13:40:51;14.63;;;11.40;;
6566;SDS011;3317;43.994;22.878;2022-11-20T13:43:21;13.90;;;10.67;;
6566;SDS011;3317;43.994;22.878;2022-11-20T13:45:58;13.37;;;10.77;;
6566;SDS011;3317;43.994;22.878;2022-11-20T13:48:29;16.20;;;11.93;;
6566;SDS011;3317;43.994;22.878;2022-11-20T13:51:06;17.23;;;13.00;;
6566;SDS011;3317;43.994;22.878;2022-11-20T13:53:44;19.40;;;14.23;;
6566;SDS011;3317;43.994;22.878;2022-11-20T13:56:23;16.70;;;12.53;;
6566;SDS011;3317;43.994;22.878;2022-11-20T13:58:58;17.27;;;12.73;;
6566;SDS011;3317;43.994;22.878;2022-11-20T14:01:30;14.97;;;12.10;;
6566;SDS011;3317;43.994;22.878;2022-11-20T14:03:57;15.60;;;10.57;;
6566;SDS011;3317;43.994;22.878;2022-11-20T14:06:26;14.67;;;11.10;;
6566;SDS011;3317;43.994;22.878;2022-11-20T14:08:55;24.20;;;17.67;;
6566;SDS011;3317;43.994;22.878;2022-11-20T14:11:22;21.57;;;14.23;;
6566;SDS011;3317;43.994;22.878;2022-11-20T14:13:52;23.77;;;18.37;;
6566;SDS011;3317;43.994;22.878;2022-11-20T14:16:27;26.23;;;17.63;;
6566;SDS011;3317;43.994;22.878;2022-11-20T14:18:56;24.50;;;18.90;;
6566;SDS011;3317;43.994;22.878;2022-11-20T14:21:37;25.97;;;16.60;;
6566;SDS011;3317;43.994;22.878;2022-11-20T14:24:04;32.73;;;24.00;;
6566;SDS011;3317;43.994;22.878;2022-11-20T14:26:32;24.67;;;17.57;;
6566;SDS011;3317;43.994;22.878;2022-11-20T14:29:00;20.60;;;15.40;;
6566;SDS011;3317;43.994;22.878;2022-11-20T14:31:27;29.90;;;22.70;;
6566;SDS011;3317;43.994;22.878;2022-11-20T14:33:55;33.60;;;22.97;;
6566;SDS011;3317;43.994;22.878;2022-11-20T14:36:24;37.13;;;25.13;;
6566;SDS011;3317;43.994;22.878;2022-11-20T14:38:52;26.80;;;20.13;;
6566;SDS011;3317;43.994;22.878;2022-11-20T14:41:20;29.37;;;19.90;;
6566;SDS011;3317;43.994;22.878;2022-11-20T14:43:50;27.90;;;19.17;;
6566;SDS011;3317;43.994;22.878;2022-11-20T14:46:19;25.97;;;19.70;;
6566;SDS011;3317;43.994;22.878;2022-11-20T14:48:47;24.03;;;17.23;;
6566;SDS011;3317;43.994;22.878;2022-11-20T14:51:27;23.00;;;16.00;;
6566;SDS011;3317;43.994;22.878;2022-11-20T14:54:07;20.87;;;15.77;;
6566;SDS011;3317;43.994;22.878;2022-11-20T14:56:35;18.00;;;14.27;;
6566;SDS011;3317;43.994;22.878;2022-11-20T14:59:02;23.70;;;16.87;;
6566;SDS011;3317;43.994;22.878;2022-11-20T15:01:30;21.03;;;15.77;;
6566;SDS011;3317;43.994;22.878;2022-11-20T15:03:59;22.00;;;16.63;;
6566;SDS011;3317;43.994;22.878;2022-11-20T15:06:29;24.17;;;16.73;;
6566;SDS011;3317;43.994;22.878;2022-11-20T15:08:56;27.77;;;19.47;;
6566;SDS011;3317;43.994;22.878;2022-11-20T15:11:27;26.77;;;18.93;;
6566;SDS011;3317;43.994;22.878;2022-11-20T15:13:56;24.97;;;17.57;;